createdAt,value
2023-02-04T00:01:32.155Z,98538.09
2023-02-04T00:06:35.562Z,98538.03
2023-02-04T00:11:40.304Z,98508.03
2023-02-04T00:16:43.642Z,98544.88
2023-02-04T00:21:47.099Z,98539.00
2023-02-04T00:26:51.847Z,98550.13
2023-02-04T00:31:55.305Z,98552.59
2023-02-04T00:36:58.679Z,98558.81
2023-02-04T00:42:03.549Z,98565.66
2023-02-04T00:47:06.831Z,98560.53
2023-02-04T00:52:10.356Z,98568.34
2023-02-04T00:57:15.218Z,98569.22
2023-02-04T01:02:18.778Z,98577.88
2023-02-04T01:07:22.321Z,98576.75
2023-02-04T01:12:28.812Z,98575.13
2023-02-04T01:17:32.645Z,98579.19
2023-02-04T01:22:36.401Z,98585.94
2023-02-04T01:27:41.224Z,98590.56
2023-02-04T01:32:44.416Z,98586.88
2023-02-04T01:37:47.721Z,98586.59
2023-02-04T01:42:52.901Z,98607.28
2023-02-04T01:47:56.563Z,98614.19
2023-02-04T01:53:00.671Z,98618.31
2023-02-04T01:58:05.489Z,98621.13
2023-02-04T02:03:11.124Z,98616.97
2023-02-04T02:08:15.977Z,98625.75
2023-02-04T02:13:20.667Z,98636.38
2023-02-04T02:18:25.525Z,98634.38
2023-02-04T02:23:34.437Z,98644.78
2023-02-04T02:28:39.328Z,98649.84
2023-02-04T02:33:42.635Z,98647.41
2023-02-04T02:38:46.175Z,98652.34
2023-02-04T02:43:50.914Z,98656.69
2023-02-04T02:48:54.278Z,98668.47
2023-02-04T02:53:57.945Z,98664.09
2023-02-04T02:59:14.753Z,98671.63
2023-02-04T03:04:20.383Z,98672.03
2023-02-04T03:09:25.961Z,98678.66
2023-02-04T03:14:31.134Z,98686.78
2023-02-04T03:19:36.554Z,98686.75
2023-02-04T03:24:40.328Z,98689.28
2023-02-04T03:29:46.868Z,98688.97
2023-02-04T03:34:50.455Z,98690.53
2023-02-04T03:39:53.942Z,98695.03
2023-02-04T03:44:58.814Z,98696.84
2023-02-04T03:50:01.944Z,98692.63
2023-02-04T03:55:06.983Z,98694.09
2023-02-04T04:00:14.829Z,98704.06
2023-02-04T04:05:18.473Z,98715.69
2023-02-04T04:10:21.960Z,98711.34
2023-02-04T04:15:26.776Z,98732.69
2023-02-04T04:20:30.462Z,98732.97
2023-02-04T04:25:34.400Z,98738.16
2023-02-04T04:30:39.271Z,98736.56
2023-02-04T04:35:42.356Z,98745.09
2023-02-04T04:40:45.614Z,98757.56
2023-02-04T04:45:50.333Z,98741.94
2023-02-04T04:50:53.800Z,98765.16
2023-02-04T04:55:57.168Z,98771.22
2023-02-04T05:01:01.968Z,98761.03
2023-02-04T05:06:05.215Z,98775.84
2023-02-04T05:11:08.492Z,98773.50
2023-02-04T05:16:13.492Z,98790.25
2023-02-04T05:21:16.928Z,98790.47
2023-02-04T05:26:29.942Z,98799.72
2023-02-04T05:31:35.805Z,98810.81
2023-02-04T05:36:39.229Z,98819.72
2023-02-04T05:41:42.707Z,98823.88
2023-02-04T05:46:47.455Z,98834.97
2023-02-04T05:51:50.919Z,98834.19
2023-02-04T05:56:54.379Z,98844.47
2023-02-04T06:01:59.150Z,98846.13
2023-02-04T06:07:03.454Z,98852.06
2023-02-04T06:12:07.281Z,98856.81
2023-02-04T06:17:12.033Z,98864.31
2023-02-04T06:22:15.501Z,98875.78
2023-02-04T06:27:23.418Z,98872.03
2023-02-04T06:32:28.593Z,98878.00
2023-02-04T06:37:31.926Z,98882.41
2023-02-04T06:42:35.523Z,98892.41
2023-02-04T06:47:40.534Z,98905.34
2023-02-04T06:52:43.882Z,98911.13
2023-02-04T06:57:47.477Z,98914.97
2023-02-04T07:02:53.008Z,98921.22
2023-02-04T07:07:56.737Z,98930.00
2023-02-04T07:13:00.132Z,98926.81
2023-02-04T07:18:05.508Z,98923.84
2023-02-04T07:23:08.813Z,98929.59
2023-02-04T07:28:12.426Z,98909.03
2023-02-04T07:33:17.225Z,98950.31
2023-02-04T07:38:20.888Z,98942.25
2023-02-04T07:43:24.269Z,98957.94
2023-02-04T07:48:29.258Z,98961.44
2023-02-04T07:53:32.351Z,98966.63
2023-02-04T07:58:36.026Z,98970.38
2023-02-04T08:03:41.860Z,98972.06
2023-02-04T08:08:45.493Z,98979.50
2023-02-04T08:13:48.958Z,98979.75
2023-02-04T08:18:53.733Z,98980.22
2023-02-04T08:23:57.122Z,98978.59
2023-02-04T08:29:00.707Z,98975.00
2023-02-04T08:34:06.424Z,98987.50
2023-02-04T08:39:10.035Z,98988.59
2023-02-04T08:44:13.566Z,98988.09
2023-02-04T08:49:18.555Z,99001.25
2023-02-04T08:54:21.736Z,99003.03
2023-02-04T08:59:26.376Z,99013.84
2023-02-04T09:04:32.058Z,99015.47
2023-02-04T09:09:35.661Z,99003.47
2023-02-04T09:14:39.203Z,99016.66
2023-02-04T09:19:44.180Z,99013.63
2023-02-04T09:24:47.457Z,99016.63
2023-02-04T09:29:51.004Z,99025.66
2023-02-04T09:34:55.916Z,99030.84
2023-02-04T09:39:59.192Z,99033.09
2023-02-04T09:45:03.761Z,99034.09
2023-02-04T09:50:14.804Z,99039.25
2023-02-04T09:55:20.779Z,99040.28
2023-02-04T10:00:26.580Z,99042.75
2023-02-04T10:05:33.526Z,99047.84
2023-02-04T10:10:37.158Z,99049.25
2023-02-04T10:15:40.635Z,99057.03
2023-02-04T10:20:45.429Z,99052.94
2023-02-04T10:25:48.787Z,99065.66
2023-02-04T10:30:52.534Z,99073.53
2023-02-04T10:35:58.722Z,99076.16
2023-02-04T10:41:03.136Z,99078.03
2023-02-04T10:46:06.731Z,99085.66
2023-02-04T10:51:14.702Z,99085.53
2023-02-04T10:56:21.864Z,99087.66
2023-02-04T11:01:30.088Z,99092.16
2023-02-04T11:06:35.093Z,99102.75
2023-02-04T11:11:38.932Z,99109.91
2023-02-04T11:16:49.897Z,99113.78
2023-02-04T11:22:05.704Z,99118.25
2023-02-04T11:27:22.431Z,99122.66
2023-02-04T11:32:33.260Z,99129.56
2023-02-04T11:37:40.919Z,99124.91
2023-02-04T11:42:44.243Z,99125.09
2023-02-04T11:47:48.672Z,99137.72
2023-02-04T11:52:55.453Z,99144.63
2023-02-04T11:57:59.701Z,99144.34
2023-02-04T12:03:06.398Z,99144.25
2023-02-04T12:08:29.163Z,99149.34
2023-02-04T12:13:33.669Z,99154.25
2023-02-04T12:18:37.018Z,99157.13
2023-02-04T12:23:43.294Z,99158.19
2023-02-04T12:28:46.856Z,99171.69
2023-02-04T12:33:50.402Z,99179.13
2023-02-04T12:38:55.754Z,99164.19
2023-02-04T12:44:01.518Z,99193.50
2023-02-04T12:49:05.207Z,99197.47
2023-02-04T12:54:10.192Z,99211.91
2023-02-04T12:59:13.755Z,99220.22
2023-02-04T13:04:17.220Z,99220.97
2023-02-04T13:09:22.262Z,99220.19
2023-02-04T13:14:25.739Z,99237.78
2023-02-04T13:19:29.356Z,99221.34
2023-02-04T13:24:34.112Z,99230.03
2023-02-04T13:29:37.773Z,99241.00
2023-02-04T13:34:41.191Z,99247.03
2023-02-04T13:39:46.157Z,99245.50
2023-02-04T13:44:49.310Z,99245.13
2023-02-04T13:49:53.142Z,99258.75
2023-02-04T13:54:58.074Z,99275.88
2023-02-04T14:00:01.467Z,99277.56
2023-02-04T14:05:05.319Z,99272.50
2023-02-04T14:10:11.028Z,99278.25
2023-02-04T14:15:14.470Z,99286.84
2023-02-04T14:20:18.015Z,99291.03
2023-02-04T14:25:23.579Z,99297.19
2023-02-04T14:30:29.804Z,99307.38
2023-02-04T14:35:33.472Z,99313.34
2023-02-04T14:40:38.940Z,99318.22
2023-02-04T14:45:42.843Z,99327.53
2023-02-04T14:50:46.526Z,99325.69
2023-02-04T14:55:51.425Z,99325.47
2023-02-04T15:00:54.760Z,99335.84
2023-02-04T15:05:58.234Z,99348.47
2023-02-04T15:11:03.245Z,99351.75
2023-02-04T15:16:07.231Z,99345.69
2023-02-04T15:21:11.537Z,99357.88
2023-02-04T15:26:16.837Z,99358.78
2023-02-04T15:31:20.637Z,99372.28
2023-02-04T15:36:24.197Z,99376.81
2023-02-04T15:41:29.200Z,99369.16
2023-02-04T15:46:33.060Z,99388.94
2023-02-04T15:51:36.742Z,99392.41
2023-02-04T15:56:43.671Z,99387.47
2023-02-04T16:01:48.006Z,99399.03
2023-02-04T16:06:58.507Z,99409.84
2023-02-04T16:12:04.264Z,99403.78
2023-02-04T16:17:10.008Z,99411.16
2023-02-04T16:22:13.498Z,99423.97
2023-02-04T16:27:18.722Z,99422.59
2023-02-04T16:32:22.731Z,99435.66
2023-02-04T16:37:26.293Z,99425.25
2023-02-04T16:42:31.595Z,99426.47
2023-02-04T16:47:35.328Z,99435.06
2023-02-04T16:52:38.655Z,99443.34
2023-02-04T16:57:43.837Z,99450.84
2023-02-04T17:02:47.238Z,99444.41
2023-02-04T17:07:50.805Z,99455.97
2023-02-04T17:12:55.538Z,99458.16
2023-02-04T17:17:59.118Z,99468.63
2023-02-04T17:23:02.562Z,99470.72
2023-02-04T17:28:07.825Z,99465.69
2023-02-04T17:33:11.428Z,99485.44
2023-02-04T17:38:15.116Z,99478.56
2023-02-04T17:43:19.867Z,99485.47
2023-02-04T17:48:23.531Z,99492.03
2023-02-04T17:53:26.900Z,99500.63
2023-02-04T17:58:32.886Z,99494.47
2023-02-04T18:03:36.466Z,99506.03
2023-02-04T18:08:42.129Z,99520.66
2023-02-04T18:13:48.684Z,99516.50
2023-02-04T18:18:53.712Z,99520.09
2023-02-04T18:24:06.420Z,99518.72
2023-02-04T18:29:30.966Z,99500.25
2023-02-04T18:34:38.788Z,99524.47
2023-02-04T18:39:42.717Z,99533.63
2023-02-04T18:44:47.896Z,99531.13
2023-02-04T18:49:51.638Z,99535.34
2023-02-04T18:54:56.067Z,99536.13
2023-02-04T19:00:34.912Z,99541.22
2023-02-04T19:05:44.270Z,99554.72
2023-02-04T19:10:47.904Z,99552.94
2023-02-04T19:16:02.505Z,99559.72
2023-02-04T19:21:20.497Z,99558.81
2023-02-04T19:26:30.357Z,99569.03
2023-02-04T19:31:35.895Z,99563.81
2023-02-04T19:36:40.233Z,99562.59
2023-02-04T19:41:49.565Z,99579.72
2023-02-04T19:46:55.126Z,99582.16
2023-02-04T19:52:00.474Z,99581.97
2023-02-04T19:57:04.069Z,99581.00
2023-02-04T20:02:34.714Z,99598.59
2023-02-04T20:07:39.994Z,99596.22
2023-02-04T20:12:43.297Z,99601.38
2023-02-04T20:17:49.240Z,99599.69
2023-02-04T20:22:55.023Z,99619.34
2023-02-04T20:28:09.838Z,99613.50
2023-02-04T20:33:34.630Z,99618.22
2023-02-04T20:38:38.186Z,99611.66
2023-02-04T20:43:42.371Z,99619.88
2023-02-04T20:48:48.942Z,99620.69
2023-02-04T20:53:53.896Z,99619.88
2023-02-04T20:59:04.575Z,99615.31
2023-02-04T21:04:21.500Z,99636.56
2023-02-04T21:09:26.420Z,99630.56
2023-02-04T21:14:29.951Z,99646.72
2023-02-04T21:19:35.553Z,99643.81
2023-02-04T21:24:39.075Z,99654.66
2023-02-04T21:29:42.639Z,99662.84
2023-02-04T21:34:47.603Z,99658.28
2023-02-04T21:39:51.201Z,99672.25
2023-02-04T21:44:54.601Z,99684.56
2023-02-04T21:49:59.574Z,99686.56
2023-02-04T21:55:02.904Z,99687.19
2023-02-04T22:00:10.797Z,99691.69
2023-02-04T22:05:15.674Z,99699.44
2023-02-04T22:10:20.230Z,99701.19
2023-02-04T22:15:24.470Z,99706.44
2023-02-04T22:20:30.467Z,99705.84
2023-02-04T22:25:34.307Z,99710.00
2023-02-04T22:30:38.292Z,99714.00
2023-02-04T22:35:43.270Z,99720.38
2023-02-04T22:40:48.788Z,99719.13
2023-02-04T22:45:51.896Z,99725.47
2023-02-04T22:50:56.972Z,99729.34
2023-02-04T22:56:00.319Z,99730.78
2023-02-04T23:01:03.966Z,99738.59
2023-02-04T23:06:09.178Z,99743.84
2023-02-04T23:11:13.288Z,99751.44
2023-02-04T23:16:16.962Z,99755.81
2023-02-04T23:21:23.207Z,99762.13
2023-02-04T23:26:26.806Z,99769.81
2023-02-04T23:31:30.394Z,99763.09
2023-02-04T23:36:36.949Z,99763.97
2023-02-04T23:41:40.519Z,99768.38
2023-02-04T23:46:44.593Z,99770.59
2023-02-04T23:51:49.688Z,99776.66
2023-02-04T23:56:54.222Z,99781.25
